Time;durP1;ratioP1;P1;durP2;ratioP2;P2;SDS_P1;SDS_P2;PMS_P1;PMS_P2;Temp;Humidity;BMP_temperature;BMP_pressure;BME280_temperature;BME280_humidity;BME280_pressure;Samples;Min_cycle;Max_cycle;Signal;HPM_P1;HPM_P2
2022/07/01 00:01:37;;;;;;;3.70;0.77;;;13.20;99.90;;;;;;5067452;28;20516;-55
2022/07/01 00:04:04;;;;;;;3.75;0.98;;;13.20;99.90;;;;;;5067135;28;20051;-60
2022/07/01 00:06:31;;;;;;;4.30;0.80;;;13.30;99.90;;;;;;5067084;28;20044;-58
2022/07/01 00:08:58;;;;;;;5.82;0.93;;;13.20;99.90;;;;;;5067155;28;20123;-56
2022/07/01 00:11:25;;;;;;;5.28;1.23;;;13.30;99.90;;;;;;5067070;28;20048;-57
2022/07/01 00:13:52;;;;;;;5.63;1.23;;;13.30;99.90;;;;;;5067074;28;20047;-57
2022/07/01 00:16:19;;;;;;;1.65;0.80;;;13.30;99.90;;;;;;5069401;28;20045;-58
2022/07/01 00:18:46;;;;;;;3.67;0.90;;;13.30;99.90;;;;;;5071588;28;20045;-59
2022/07/01 00:21:12;;;;;;;3.92;1.20;;;13.30;99.90;;;;;;5070973;28;20048;-58
2022/07/01 00:23:41;;;;;;;3.80;0.75;;;13.30;99.90;;;;;;5069856;28;20080;-57
2022/07/01 00:26:08;;;;;;;5.97;0.90;;;13.30;99.90;;;;;;5070893;28;20048;-60
2022/07/01 00:28:35;;;;;;;8.30;1.10;;;13.30;99.90;;;;;;5071190;28;20064;-55
2022/07/01 00:31:02;;;;;;;9.40;1.75;;;13.20;99.90;;;;;;5070826;28;20098;-58
2022/07/01 00:33:29;;;;;;;6.47;1.15;;;13.20;99.90;;;;;;5071233;28;20099;-55
2022/07/01 00:35:56;;;;;;;9.02;1.60;;;13.30;99.90;;;;;;5070687;28;20102;-57
2022/07/01 00:38:23;;;;;;;5.10;1.27;;;13.30;99.90;;;;;;5067312;28;20053;-57
2022/07/01 00:40:53;;;;;;;6.65;1.10;;;13.30;99.90;;;;;;5070650;28;20044;-59
2022/07/01 00:43:24;;;;;;;5.88;1.02;;;13.20;99.90;;;;;;5070527;28;20491;-57
2022/07/01 00:46:11;;;;;;;8.45;0.95;;;13.20;99.90;;;;;;4716369;28;10000114;-57
2022/07/01 00:48:38;;;;;;;3.03;1.10;;;13.20;99.90;;;;;;5069687;28;20090;-57
2022/07/01 00:51:05;;;;;;;9.52;1.15;;;13.20;99.90;;;;;;5070187;28;20044;-57
2022/07/01 00:53:32;;;;;;;3.38;1.10;;;13.10;99.90;;;;;;5069307;28;20044;-57
2022/07/01 00:55:59;;;;;;;7.40;1.00;;;13.10;99.90;;;;;;5070587;28;20215;-57
2022/07/01 00:58:28;;;;;;;3.40;1.00;;;13.20;99.90;;;;;;5070555;28;20132;-57
2022/07/01 01:00:56;;;;;;;3.38;1.05;;;13.20;99.90;;;;;;5061555;28;20094;-58
2022/07/01 01:03:22;;;;;;;3.72;1.15;;;13.20;99.90;;;;;;5070366;28;20048;-57
2022/07/01 01:05:50;;;;;;;6.95;1.08;;;13.20;99.90;;;;;;5068829;28;20045;-58
2022/07/01 01:08:17;;;;;;;6.32;1.00;;;13.20;99.90;;;;;;5070124;28;20525;-57
2022/07/01 01:10:44;;;;;;;8.38;1.45;;;13.20;99.90;;;;;;5070393;28;20079;-57
2022/07/01 01:13:12;;;;;;;5.53;1.23;;;13.20;99.90;;;;;;5068910;28;20474;-58
2022/07/01 01:15:39;;;;;;;4.18;0.90;;;13.20;99.90;;;;;;5070093;28;20115;-57
2022/07/01 01:18:06;;;;;;;5.15;1.08;;;13.10;99.90;;;;;;5069877;28;20040;-57
2022/07/01 01:20:35;;;;;;;6.03;1.55;;;13.10;99.90;;;;;;5070037;28;20044;-57
2022/07/01 01:23:03;;;;;;;4.97;1.27;;;13.20;99.90;;;;;;5070103;28;20041;-57
2022/07/01 01:25:31;;;;;;;5.68;1.55;;;13.20;99.90;;;;;;5068547;28;20080;-55
2022/07/01 01:27:58;;;;;;;7.43;1.33;;;13.10;99.90;;;;;;5068037;28;20135;-57
2022/07/01 01:30:25;;;;;;;9.93;2.08;;;13.20;99.90;;;;;;5070004;28;20079;-57
2022/07/01 01:32:52;;;;;;;7.80;1.30;;;13.20;99.90;;;;;;5069486;28;20045;-58
2022/07/01 01:35:20;;;;;;;7.85;1.25;;;13.20;99.90;;;;;;5070015;28;20047;-57
2022/07/01 01:37:47;;;;;;;5.47;1.85;;;13.20;99.90;;;;;;5069737;28;20080;-57
2022/07/01 01:40:14;;;;;;;3.60;0.90;;;13.20;99.90;;;;;;5069712;28;20040;-56
2022/07/01 01:42:44;;;;;;;7.28;1.33;;;13.20;99.90;;;;;;5069615;28;20530;-57
2022/07/01 01:45:11;;;;;;;6.30;1.30;;;13.20;99.90;;;;;;5069572;28;20091;-57
2022/07/01 01:47:38;;;;;;;3.08;0.80;;;13.20;99.90;;;;;;5069454;28;20144;-54
2022/07/01 01:50:06;;;;;;;6.20;1.20;;;13.20;99.90;;;;;;5069503;28;20044;-57
2022/07/01 01:52:33;;;;;;;2.75;1.17;;;13.20;99.90;;;;;;5069642;28;20487;-56
2022/07/01 01:55:00;;;;;;;3.78;1.10;;;13.20;99.90;;;;;;5069424;28;20583;-56
2022/07/01 01:57:27;;;;;;;6.50;1.83;;;13.30;99.90;;;;;;5069209;28;20497;-55
2022/07/01 01:59:54;;;;;;;3.83;1.77;;;13.30;99.90;;;;;;5070059;28;20037;-56
2022/07/01 02:02:21;;;;;;;5.97;1.30;;;13.20;99.90;;;;;;5069299;28;20088;-56
2022/07/01 02:04:48;;;;;;;3.95;1.13;;;13.30;99.90;;;;;;5069133;28;20074;-57
2022/07/01 02:07:15;;;;;;;3.70;1.02;;;13.30;99.90;;;;;;5069146;28;20096;-56
2022/07/01 02:09:42;;;;;;;6.80;1.17;;;13.30;99.90;;;;;;5069256;28;20044;-56
2022/07/01 02:12:09;;;;;;;4.45;1.70;;;13.30;99.90;;;;;;5069065;28;20084;-55
2022/07/01 02:14:35;;;;;;;5.00;1.30;;;13.30;99.90;;;;;;5068799;28;20546;-57
2022/07/01 02:17:03;;;;;;;4.43;1.23;;;13.30;99.90;;;;;;5069091;28;20052;-56
2022/07/01 02:19:29;;;;;;;6.07;1.80;;;13.30;99.90;;;;;;5068799;28;20080;-56
2022/07/01 02:21:56;;;;;;;6.78;1.05;;;13.30;99.90;;;;;;5068922;28;20045;-57
2022/07/01 02:24:23;;;;;;;9.70;1.80;;;13.30;99.90;;;;;;5068602;28;20087;-56
2022/07/01 02:26:50;;;;;;;6.13;1.50;;;13.30;99.90;;;;;;5068795;28;20080;-56
2022/07/01 02:29:17;;;;;;;4.07;1.23;;;13.30;99.90;;;;;;5067525;28;20102;-57
2022/07/01 02:31:44;;;;;;;4.75;1.42;;;13.30;99.90;;;;;;5068608;28;20522;-56
2022/07/01 02:34:11;;;;;;;4.05;0.80;;;13.30;99.90;;;;;;5068868;28;20374;-57
2022/07/01 02:36:38;;;;;;;13.52;1.85;;;13.20;99.90;;;;;;5068835;28;20450;-57
2022/07/01 02:39:04;;;;;;;4.47;1.33;;;13.20;99.90;;;;;;5067462;28;20055;-58
2022/07/01 02:41:31;;;;;;;6.00;1.52;;;13.20;99.90;;;;;;5068458;28;20076;-57
2022/07/01 02:43:58;;;;;;;3.65;1.30;;;13.20;99.90;;;;;;5068294;28;20087;-58
2022/07/01 02:46:25;;;;;;;3.65;1.63;;;13.20;99.90;;;;;;5068759;28;20131;-60
2022/07/01 02:48:51;;;;;;;2.92;1.17;;;13.20;99.90;;;;;;5068793;28;20041;-60
2022/07/01 02:51:18;;;;;;;9.77;1.52;;;13.20;99.90;;;;;;5057591;28;20127;-56
2022/07/01 02:53:45;;;;;;;5.22;1.17;;;13.20;99.90;;;;;;5069398;28;20434;-56
2022/07/01 02:56:12;;;;;;;8.80;3.22;;;13.20;99.90;;;;;;5069798;28;20072;-57
2022/07/01 02:58:39;;;;;;;8.02;1.33;;;13.20;99.90;;;;;;5030237;28;20080;-58
2022/07/01 03:01:06;;;;;;;5.60;1.25;;;13.20;99.90;;;;;;5029153;28;20049;-57
2022/07/01 03:03:33;;;;;;;7.97;1.30;;;13.20;99.90;;;;;;5028249;28;20504;-58
2022/07/01 03:06:00;;;;;;;5.10;1.20;;;13.20;99.90;;;;;;5027669;28;20134;-59
2022/07/01 03:08:27;;;;;;;7.97;1.52;;;13.10;99.90;;;;;;5010963;28;20575;-57
2022/07/01 03:10:53;;;;;;;2.75;1.08;;;13.10;99.90;;;;;;5028076;28;20133;-59
2022/07/01 03:13:20;;;;;;;7.22;1.45;;;13.10;99.90;;;;;;5028174;28;20099;-57
2022/07/01 03:15:47;;;;;;;5.13;1.48;;;13.10;99.90;;;;;;5028597;28;20108;-58
2022/07/01 03:18:14;;;;;;;5.88;1.45;;;13.10;99.90;;;;;;5028377;28;20501;-58
2022/07/01 03:20:41;;;;;;;7.82;1.30;;;13.10;99.90;;;;;;5029222;28;20085;-58
2022/07/01 03:23:08;;;;;;;3.78;1.02;;;13.10;99.90;;;;;;5029138;28;20084;-59
2022/07/01 03:25:36;;;;;;;6.07;1.10;;;13.10;99.90;;;;;;5029086;28;20107;-56
2022/07/01 03:28:03;;;;;;;5.47;1.58;;;13.10;99.90;;;;;;5028112;28;20137;-58
2022/07/01 03:30:30;;;;;;;6.80;1.23;;;13.10;99.90;;;;;;5027864;28;20115;-59
2022/07/01 03:32:57;;;;;;;3.60;1.08;;;13.10;99.90;;;;;;5025506;28;20492;-58
2022/07/01 03:35:36;;;;;;;6.00;1.10;;;13.20;99.90;;;;;;5026761;28;20076;-57
2022/07/01 03:38:03;;;;;;;5.85;1.55;;;13.20;99.90;;;;;;5027203;28;20047;-57
2022/07/01 03:40:33;;;;;;;5.35;1.13;;;13.20;99.90;;;;;;5025931;28;20132;-60
2022/07/01 03:43:00;;;;;;;7.68;2.28;;;13.20;99.90;;;;;;5027331;28;20077;-57
2022/07/01 03:45:26;;;;;;;5.93;1.27;;;13.10;99.90;;;;;;5026326;28;20053;-59
2022/07/01 03:47:53;;;;;;;7.03;1.20;;;13.10;99.90;;;;;;5027076;28;20181;-57
2022/07/01 03:50:21;;;;;;;5.00;1.20;;;13.10;99.90;;;;;;5027432;28;20551;-54
2022/07/01 03:52:48;;;;;;;4.82;1.20;;;13.00;99.90;;;;;;5026488;28;20073;-54
2022/07/01 03:55:16;;;;;;;2.45;1.00;;;13.00;99.90;;;;;;5027688;28;20041;-56
2022/07/01 03:57:43;;;;;;;4.97;1.30;;;13.00;99.90;;;;;;5050917;28;20099;-57
2022/07/01 04:00:10;;;;;;;4.07;1.33;;;13.00;99.90;;;;;;5065906;28;20068;-54
2022/07/01 04:02:43;;;;;;;7.85;1.25;;;13.00;99.90;;;;;;5065508;28;20491;-57
2022/07/01 04:05:09;;;;;;;11.32;1.30;;;13.00;99.90;;;;;;5066566;28;20044;-56
2022/07/01 04:07:36;;;;;;;6.47;1.77;;;13.10;99.90;;;;;;5067291;28;20173;-57
2022/07/01 04:10:03;;;;;;;3.92;1.02;;;13.10;99.90;;;;;;5066677;28;20109;-56
2022/07/01 04:12:30;;;;;;;7.97;1.33;;;13.20;99.90;;;;;;5065538;28;20566;-57
2022/07/01 04:14:57;;;;;;;6.97;1.38;;;13.20;99.90;;;;;;5065585;28;20044;-54
2022/07/01 04:17:24;;;;;;;4.85;1.33;;;13.20;99.90;;;;;;5065590;28;20076;-55
2022/07/01 04:19:50;;;;;;;2.83;1.40;;;13.20;99.90;;;;;;5066650;28;20041;-56
2022/07/01 04:22:32;;;;;;;4.70;1.50;;;13.20;99.90;;;;;;5066775;28;20143;-56
2022/07/01 04:25:00;;;;;;;3.50;1.23;;;13.30;99.90;;;;;;5066358;28;20072;-57
2022/07/01 04:27:27;;;;;;;11.52;2.30;;;13.30;99.90;;;;;;5066460;28;20048;-59
2022/07/01 04:29:54;;;;;;;6.82;1.92;;;13.30;99.90;;;;;;5066679;28;20044;-57
2022/07/01 04:32:21;;;;;;;10.52;1.35;;;13.40;99.90;;;;;;5067086;28;20049;-57
2022/07/01 04:34:47;;;;;;;6.68;1.98;;;13.40;99.90;;;;;;5066782;28;20044;-56
2022/07/01 04:37:14;;;;;;;7.22;1.35;;;13.50;99.90;;;;;;5066707;28;20147;-56
2022/07/01 04:39:41;;;;;;;6.50;1.20;;;13.40;99.90;;;;;;5066556;28;20037;-55
2022/07/01 04:42:08;;;;;;;6.88;1.35;;;13.40;99.90;;;;;;5067387;28;20055;-57
2022/07/01 04:44:36;;;;;;;4.82;1.25;;;13.30;99.90;;;;;;5066675;28;20087;-56
2022/07/01 04:47:09;;;;;;;7.75;1.63;;;13.30;99.90;;;;;;5066393;28;20052;-57
2022/07/01 04:49:36;;;;;;;5.90;2.00;;;13.30;99.90;;;;;;5066542;28;20166;-57
2022/07/01 04:52:03;;;;;;;6.63;1.73;;;13.30;99.90;;;;;;5066551;28;20040;-56
2022/07/01 04:54:30;;;;;;;4.45;1.70;;;13.40;99.90;;;;;;5065344;28;20618;-58
2022/07/01 04:56:56;;;;;;;9.13;1.52;;;13.40;99.90;;;;;;5066277;28;20084;-57
2022/07/01 04:59:23;;;;;;;9.63;1.63;;;13.50;99.90;;;;;;5066492;28;20040;-57
2022/07/01 05:01:50;;;;;;;6.35;1.30;;;13.50;99.90;;;;;;5066629;28;20098;-57
2022/07/01 05:04:17;;;;;;;4.05;1.10;;;13.60;99.90;;;;;;5070044;28;20079;-57
2022/07/01 05:06:45;;;;;;;7.43;1.77;;;13.60;99.90;;;;;;5069840;28;20049;-57
2022/07/01 05:09:12;;;;;;;4.82;1.50;;;13.60;99.90;;;;;;5069946;28;20106;-58
2022/07/01 05:11:39;;;;;;;11.98;1.58;;;13.60;99.90;;;;;;5069350;28;20451;-59
2022/07/01 05:14:06;;;;;;;9.65;1.88;;;13.70;99.90;;;;;;5069956;28;20072;-57
2022/07/01 05:16:34;;;;;;;4.78;2.38;;;13.70;99.90;;;;;;5068729;28;20075;-56
2022/07/01 05:22:05;;;;;;;10.20;1.75;;;13.80;99.90;;;;;;5070081;28;20098;-58
2022/07/01 05:24:32;;;;;;;11.35;2.58;;;13.80;99.90;;;;;;5069630;28;20456;-57
2022/07/01 05:27:00;;;;;;;6.30;1.70;;;13.80;99.90;;;;;;5069444;28;20416;-57
2022/07/01 05:29:27;;;;;;;9.20;1.65;;;13.90;99.90;;;;;;5068327;28;20074;-57
2022/07/01 05:31:54;;;;;;;4.53;1.50;;;13.90;99.90;;;;;;5069079;28;20045;-57
2022/07/01 05:34:21;;;;;;;9.48;1.80;;;13.90;99.90;;;;;;5069860;28;20416;-62
2022/07/01 05:36:47;;;;;;;6.32;1.77;;;14.00;99.90;;;;;;5069601;28;20075;-56
2022/07/01 05:39:14;;;;;;;5.97;1.70;;;14.00;99.90;;;;;;5069600;28;20084;-57
2022/07/01 05:41:41;;;;;;;8.45;1.48;;;14.10;99.90;;;;;;5069453;28;20076;-57
2022/07/01 05:44:08;;;;;;;8.35;1.77;;;14.10;99.90;;;;;;5068193;28;20525;-58
2022/07/01 05:46:36;;;;;;;4.85;2.97;;;14.10;99.90;;;;;;5068444;28;20048;-57
2022/07/01 05:49:03;;;;;;;5.28;1.60;;;14.30;99.90;;;;;;5069336;28;20045;-57
2022/07/01 05:51:30;;;;;;;7.55;1.95;;;14.30;99.90;;;;;;5069272;28;20080;-57
2022/07/01 05:53:57;;;;;;;4.82;1.50;;;14.30;99.90;;;;;;5069841;28;20110;-56
2022/07/01 05:56:25;;;;;;;2.10;1.00;;;14.40;99.90;;;;;;5069363;28;20102;-57
2022/07/01 05:58:53;;;;;;;7.43;1.55;;;14.40;99.90;;;;;;5067901;28;20041;-58
2022/07/01 06:01:19;;;;;;;6.32;1.75;;;14.40;99.90;;;;;;5069031;28;20080;-58
2022/07/01 06:03:46;;;;;;;5.65;2.40;;;14.30;99.90;;;;;;5069122;28;20230;-55
2022/07/01 06:06:13;;;;;;;7.97;1.30;;;14.30;99.90;;;;;;5069032;28;20123;-55
2022/07/01 06:08:40;;;;;;;7.80;1.70;;;14.20;99.90;;;;;;5069090;28;20503;-59
2022/07/01 06:11:08;;;;;;;2.58;1.30;;;14.20;99.90;;;;;;5069242;28;20036;-60
2022/07/01 06:13:34;;;;;;;5.03;1.25;;;14.10;99.90;;;;;;5051187;28;20515;-59
2022/07/01 06:16:01;;;;;;;5.63;1.40;;;14.10;99.90;;;;;;5068604;28;20145;-60
2022/07/01 06:18:28;;;;;;;4.38;1.20;;;14.10;99.90;;;;;;5069634;28;20091;-59
2022/07/01 06:20:55;;;;;;;7.03;1.25;;;14.10;99.90;;;;;;5069393;28;20458;-59
2022/07/01 06:23:22;;;;;;;7.95;1.90;;;14.20;99.90;;;;;;5068967;28;20104;-58
2022/07/01 06:25:49;;;;;;;5.07;1.92;;;14.20;99.90;;;;;;5069213;28;20044;-58
2022/07/01 06:28:15;;;;;;;5.95;1.60;;;14.20;99.90;;;;;;5067789;28;20134;-59
2022/07/01 06:30:45;;;;;;;7.57;1.65;;;14.30;99.90;;;;;;5068615;28;20076;-58
2022/07/01 06:33:12;;;;;;;3.28;1.48;;;14.20;99.90;;;;;;5068965;28;20056;-58
2022/07/01 06:35:40;;;;;;;6.25;1.27;;;14.30;99.90;;;;;;5068958;28;20509;-58
2022/07/01 06:38:06;;;;;;;4.35;1.30;;;14.40;99.90;;;;;;5067535;28;20135;-58
2022/07/01 06:40:33;;;;;;;6.10;1.80;;;14.40;99.90;;;;;;5067702;28;20049;-58
2022/07/01 06:43:00;;;;;;;5.55;1.40;;;14.40;99.90;;;;;;5064663;28;20091;-59
2022/07/01 06:45:27;;;;;;;4.43;1.80;;;14.40;99.90;;;;;;5067530;28;20075;-57
2022/07/01 06:47:53;;;;;;;4.78;1.23;;;14.50;99.90;;;;;;5066805;28;20080;-59
2022/07/01 06:50:20;;;;;;;5.05;1.52;;;14.50;99.90;;;;;;5068026;28;20147;-59
2022/07/01 06:52:47;;;;;;;8.50;1.70;;;14.50;99.90;;;;;;5066315;28;20511;-59
2022/07/01 06:55:14;;;;;;;2.25;1.20;;;14.50;99.90;;;;;;5066180;28;20076;-59
2022/07/01 06:57:41;;;;;;;8.50;2.00;;;14.60;99.90;;;;;;5066856;28;20084;-59
2022/07/01 07:00:08;;;;;;;6.15;2.35;;;14.60;99.90;;;;;;5066923;28;20513;-58
2022/07/01 07:02:35;;;;;;;4.47;1.95;;;14.70;99.90;;;;;;5066310;28;20503;-60
2022/07/01 07:05:02;;;;;;;3.83;1.67;;;14.70;99.90;;;;;;5066155;28;20044;-59
2022/07/01 07:07:29;;;;;;;3.47;1.90;;;14.80;99.90;;;;;;5065771;28;20047;-58
2022/07/01 07:09:56;;;;;;;8.80;2.03;;;14.80;99.90;;;;;;5054968;28;20110;-59
2022/07/01 07:12:24;;;;;;;8.05;1.92;;;14.90;99.90;;;;;;5065872;28;20401;-57
2022/07/01 07:14:51;;;;;;;6.50;1.63;;;15.00;99.90;;;;;;5066260;28;20048;-57
2022/07/01 07:17:17;;;;;;;5.47;2.08;;;15.00;99.90;;;;;;5067474;28;20480;-57
2022/07/01 07:19:44;;;;;;;7.20;1.77;;;15.10;99.90;;;;;;5067675;28;20048;-57
2022/07/01 07:22:11;;;;;;;6.15;3.10;;;15.20;99.90;;;;;;5067553;28;20116;-57
2022/07/01 07:24:38;;;;;;;8.88;1.63;;;15.30;99.90;;;;;;5066759;28;20080;-59
2022/07/01 07:27:06;;;;;;;3.42;1.20;;;15.40;99.90;;;;;;5066344;28;20052;-57
2022/07/01 07:29:33;;;;;;;4.07;1.40;;;15.50;99.90;;;;;;5066140;28;20490;-56
2022/07/01 07:31:59;;;;;;;4.25;1.15;;;15.50;99.90;;;;;;5066117;28;20446;-59
2022/07/01 07:34:26;;;;;;;7.53;1.45;;;15.60;99.90;;;;;;5066917;28;20052;-60
2022/07/01 07:36:53;;;;;;;6.07;1.33;;;15.70;99.90;;;;;;5067297;28;20072;-59
2022/07/01 07:39:20;;;;;;;3.88;0.80;;;15.80;99.90;;;;;;5065344;28;20656;-56
2022/07/01 07:41:47;;;;;;;4.35;1.05;;;15.90;99.90;;;;;;5066749;28;20052;-58
2022/07/01 07:44:13;;;;;;;3.60;0.93;;;16.00;99.90;;;;;;5067020;28;20087;-58
2022/07/01 07:46:40;;;;;;;7.32;1.60;;;16.10;99.90;;;;;;5066807;28;20125;-59
2022/07/01 07:49:07;;;;;;;4.35;1.30;;;16.20;99.90;;;;;;5066805;28;20048;-59
2022/07/01 07:51:34;;;;;;;3.08;1.17;;;16.30;99.90;;;;;;5057388;28;20044;-59
2022/07/01 07:54:02;;;;;;;2.90;1.45;;;16.50;99.90;;;;;;5066341;28;20082;-58
2022/07/01 07:56:30;;;;;;;2.05;0.80;;;16.60;99.90;;;;;;5056354;28;20064;-57
2022/07/01 07:58:57;;;;;;;4.68;1.25;;;16.70;99.90;;;;;;5066888;28;20052;-58
2022/07/01 08:01:24;;;;;;;4.55;0.95;;;16.70;99.90;;;;;;5066788;28;20583;-59
2022/07/01 08:03:50;;;;;;;6.18;0.90;;;16.70;99.90;;;;;;5067061;28;20080;-59
2022/07/01 08:06:17;;;;;;;4.75;1.23;;;16.70;99.90;;;;;;5065546;28;20048;-58
2022/07/01 08:08:45;;;;;;;3.65;0.93;;;16.80;99.90;;;;;;5067090;28;20455;-59
2022/07/01 08:11:12;;;;;;;2.55;0.93;;;16.80;99.90;;;;;;5066462;28;20052;-59
2022/07/01 08:13:39;;;;;;;6.40;1.40;;;16.70;99.90;;;;;;5065450;28;20044;-59
2022/07/01 08:16:05;;;;;;;4.40;1.20;;;16.70;99.90;;;;;;5065072;28;20048;-57
2022/07/01 08:18:32;;;;;;;4.55;2.60;;;16.70;99.90;;;;;;5064228;28;20554;-58
2022/07/01 08:20:59;;;;;;;4.63;1.65;;;16.80;99.90;;;;;;5064928;28;20079;-59
2022/07/01 08:23:26;;;;;;;9.25;1.45;;;16.90;99.90;;;;;;5066505;28;20079;-58
2022/07/01 08:25:53;;;;;;;3.88;2.10;;;16.90;99.90;;;;;;5067000;28;20186;-59
2022/07/01 08:28:19;;;;;;;5.28;1.17;;;16.80;99.90;;;;;;5064160;28;20523;-59
2022/07/01 08:30:46;;;;;;;4.53;1.30;;;16.80;99.90;;;;;;5066799;28;20075;-58
2022/07/01 08:33:13;;;;;;;3.97;1.05;;;16.80;99.90;;;;;;5048756;28;20041;-59
2022/07/01 08:35:40;;;;;;;5.32;1.20;;;16.90;99.90;;;;;;5066799;28;20094;-59
2022/07/01 08:38:07;;;;;;;4.75;1.50;;;16.90;99.90;;;;;;5068535;28;20052;-58
2022/07/01 08:40:34;;;;;;;2.72;0.80;;;16.90;99.90;;;;;;5071056;28;20083;-57
2022/07/01 08:43:03;;;;;;;6.15;1.08;;;17.00;99.90;;;;;;5069358;28;20152;-57
2022/07/01 08:45:31;;;;;;;3.17;0.80;;;17.10;99.90;;;;;;5071079;28;20072;-59
2022/07/01 08:48:00;;;;;;;2.85;0.95;;;17.20;99.90;;;;;;5071435;28;20622;-58
2022/07/01 08:50:34;;;;;;;2.80;0.90;;;17.40;99.90;;;;;;5071542;28;20045;-59
2022/07/01 08:53:01;;;;;;;6.22;1.33;;;17.40;99.90;;;;;;5068506;28;20045;-59
2022/07/01 08:55:28;;;;;;;2.42;0.70;;;17.50;99.90;;;;;;5070590;28;20468;-59
2022/07/01 08:57:54;;;;;;;6.22;0.73;;;17.70;99.90;;;;;;5070187;28;20083;-60
2022/07/01 09:00:21;;;;;;;3.35;1.10;;;17.80;99.90;;;;;;5070555;28;20446;-58
2022/07/01 09:02:53;;;;;;;3.08;0.90;;;17.90;99.90;;;;;;5069962;28;20200;-56
2022/07/01 09:05:20;;;;;;;6.22;1.50;;;18.00;99.90;;;;;;5067213;28;20091;-61
2022/07/01 09:07:47;;;;;;;4.10;0.85;;;18.00;99.90;;;;;;5070220;28;20090;-58
2022/07/01 09:10:18;;;;;;;3.65;0.80;;;17.90;99.90;;;;;;5070027;28;20139;-58
2022/07/01 09:12:46;;;;;;;2.05;0.90;;;17.90;99.90;;;;;;5068732;28;20053;-58
2022/07/01 09:15:31;;;;;;;2.92;0.95;;;17.80;99.90;;;;;;5069736;28;20052;-58
2022/07/01 09:18:17;;;;;;;1.38;0.80;;;17.90;99.90;;;;;;5069835;28;20083;-58
2022/07/01 09:20:46;;;;;;;3.33;1.02;;;17.80;99.70;;;;;;5069673;28;20036;-59
2022/07/01 09:23:18;;;;;;;1.27;0.50;;;17.90;99.90;;;;;;5069788;28;20054;-58
2022/07/01 09:25:50;;;;;;;4.72;1.08;;;18.00;99.10;;;;;;5069883;28;20131;-58
2022/07/01 09:28:25;;;;;;;8.73;1.35;;;18.20;99.20;;;;;;5069771;28;20143;-58
2022/07/01 09:30:55;;;;;;;1.42;0.75;;;18.40;99.10;;;;;;5069757;28;20049;-58
2022/07/01 09:33:26;;;;;;;3.83;1.10;;;18.50;99.20;;;;;;5069348;28;20076;-58
2022/07/01 09:35:54;;;;;;;3.63;1.10;;;18.60;99.70;;;;;;5051746;28;20045;-59
2022/07/01 09:38:24;;;;;;;5.85;1.30;;;18.60;99.30;;;;;;5069269;28;20386;-59
2022/07/01 09:41:03;;;;;;;2.28;1.25;;;18.60;98.70;;;;;;5069405;28;20098;-58
2022/07/01 09:43:31;;;;;;;2.85;1.00;;;18.50;95.40;;;;;;5069622;28;20083;-57
2022/07/01 09:46:09;;;;;;;7.45;1.23;;;18.50;98.20;;;;;;5069363;28;20098;-58
2022/07/01 09:48:36;;;;;;;5.10;1.45;;;18.50;96.10;;;;;;5060654;28;20060;-58
2022/07/01 09:51:04;;;;;;;3.58;0.80;;;18.40;97.00;;;;;;5069252;28;20380;-58
2022/07/01 09:53:37;;;;;;;7.18;1.20;;;18.50;98.70;;;;;;5058575;28;20041;-58
2022/07/01 09:56:04;;;;;;;3.15;1.10;;;18.60;97.10;;;;;;5069402;28;20076;-59
2022/07/01 09:58:35;;;;;;;3.17;1.42;;;18.70;98.00;;;;;;5067599;28;20067;-58
2022/07/01 10:01:02;;;;;;;3.83;1.10;;;18.60;97.70;;;;;;5069405;28;20059;-59
2022/07/01 10:03:30;;;;;;;3.78;0.90;;;18.60;97.70;;;;;;5069529;28;20127;-59
2022/07/01 10:06:06;;;;;;;4.78;0.80;;;18.60;97.40;;;;;;5069185;28;20045;-58
2022/07/01 10:08:42;;;;;;;3.55;0.77;;;18.40;96.70;;;;;;5069040;28;20132;-59
2022/07/01 10:11:43;;;;;;;3.47;1.10;;;18.40;97.80;;;;;;5067406;28;20052;-58
2022/07/01 10:14:12;;;;;;;3.15;1.00;;;18.20;96.10;;;;;;5068323;28;20052;-59
2022/07/01 10:16:38;;;;;;;2.05;0.88;;;18.50;96.60;;;;;;5068964;28;20083;-59
2022/07/01 10:19:22;;;;;;;4.78;0.80;;;19.00;97.70;;;;;;5068562;28;20513;-58
2022/07/01 10:21:51;;;;;;;;;;;19.50;95.00;;;;;;5069125;28;20083;-58
2022/07/01 10:24:18;;;;;;;2.15;1.00;;;19.90;94.40;;;;;;5068448;28;19924;-59
2022/07/01 10:26:45;;;;;;;4.68;0.75;;;19.90;96.30;;;;;;5068680;28;20080;-58
2022/07/01 10:29:32;;;;;;;2.30;0.82;;;19.80;94.40;;;;;;5068431;28;20076;-59
2022/07/01 10:32:02;;;;;;;3.72;1.33;;;19.80;92.00;;;;;;5060228;28;20170;-60
2022/07/01 10:34:39;;;;;;;6.25;0.95;;;20.00;92.20;;;;;;5068494;28;20461;-60
2022/07/01 10:37:09;;;;;;;2.92;0.82;;;20.30;91.90;;;;;;5068230;28;20052;-58
2022/07/01 10:39:57;;;;;;;1.50;0.60;;;20.60;93.20;;;;;;5068333;28;20040;-58
2022/07/01 10:42:56;;;;;;;2.55;0.80;;;20.90;90.50;;;;;;5068263;28;20102;-58
2022/07/01 10:45:44;;;;;;;2.53;0.80;;;21.00;88.10;;;;;;5060675;28;20295;-59
2022/07/01 10:48:18;;;;;;;2.08;0.80;;;20.90;91.40;;;;;;5067779;28;20496;-59
2022/07/01 10:50:46;;;;;;;1.88;0.80;;;21.10;88.60;;;;;;5068047;28;20140;-59
2022/07/01 10:53:13;;;;;;;3.58;0.60;;;21.20;86.30;;;;;;5067759;28;20048;-58
2022/07/01 10:55:44;;;;;;;4.07;1.20;;;20.80;87.50;;;;;;5058505;28;20056;-58
2022/07/01 10:58:11;;;;;;;3.22;0.82;;;20.00;89.40;;;;;;5067389;28;20410;-58
2022/07/01 11:00:41;;;;;;;3.58;0.85;;;20.10;92.40;;;;;;5067363;28;20148;-58
2022/07/01 11:03:13;;;;;;;3.47;1.38;;;19.90;91.00;;;;;;5067658;28;20044;-58
2022/07/01 11:05:41;;;;;;;3.63;1.05;;;20.00;92.00;;;;;;5066543;28;20048;-59
2022/07/01 11:08:08;;;;;;;3.35;0.93;;;19.80;91.40;;;;;;5067628;28;20041;-58
2022/07/01 11:10:39;;;;;;;8.80;1.98;;;19.70;91.60;;;;;;5067768;28;20076;-59
2022/07/01 11:13:06;;;;;;;7.43;0.93;;;19.60;92.20;;;;;;5057965;28;20213;-58
2022/07/01 11:15:33;;;;;;;4.50;1.10;;;19.60;92.40;;;;;;5067624;28;20102;-58
2022/07/01 11:18:00;;;;;;;4.80;1.25;;;19.50;92.70;;;;;;5067035;28;20549;-59
2022/07/01 11:20:30;;;;;;;4.25;0.88;;;19.50;92.60;;;;;;5067535;28;20049;-59
2022/07/01 11:22:56;;;;;;;6.28;1.00;;;19.60;91.40;;;;;;5064256;28;20058;-59
2022/07/01 11:25:23;;;;;;;5.07;1.85;;;19.80;92.10;;;;;;5067913;28;20062;-58
2022/07/01 11:27:53;;;;;;;2.72;0.85;;;20.00;91.20;;;;;;5067205;28;20142;-58
2022/07/01 11:30:20;;;;;;;4.68;0.85;;;20.10;90.70;;;;;;5067873;28;20148;-59
2022/07/01 11:32:52;;;;;;;6.40;0.95;;;20.10;90.20;;;;;;5067117;28;20048;-59
2022/07/01 11:41:25;;;;;;;1.25;0.63;;;20.50;86.20;;;;;;5057465;28;20202;-59
2022/07/01 11:43:52;;;;;;;1.17;0.43;;;20.60;83.30;;;;;;5065684;28;20135;-59
2022/07/01 11:46:18;;;;;;;2.05;0.93;;;20.60;88.80;;;;;;5067297;28;20048;-60
2022/07/01 11:48:50;;;;;;;3.15;1.08;;;20.60;88.10;;;;;;5066954;28;20060;-58
2022/07/01 11:51:19;;;;;;;1.75;0.70;;;20.50;85.20;;;;;;5055368;28;20040;-59
2022/07/01 11:53:48;;;;;;;3.92;1.00;;;20.40;84.80;;;;;;5066813;28;20036;-59
2022/07/01 11:56:16;;;;;;;2.53;0.65;;;20.30;85.00;;;;;;5065843;28;20067;-59
2022/07/01 11:58:47;;;;;;;8.55;0.85;;;20.20;87.00;;;;;;5067134;28;20063;-58
2022/07/01 12:01:50;;;;;;;7.20;1.25;;;20.20;85.80;;;;;;5067352;28;20052;-59
2022/07/01 12:04:17;;;;;;;4.57;0.57;;;20.10;82.50;;;;;;5049648;28;20445;-59
2022/07/01 12:06:44;;;;;;;6.90;1.08;;;20.00;84.20;;;;;;5056218;28;20494;-59
2022/07/01 12:09:14;;;;;;;4.88;1.35;;;20.00;86.00;;;;;;5065359;28;20080;-59
2022/07/01 12:11:51;;;;;;;2.72;0.82;;;20.00;87.30;;;;;;5068662;28;20499;-59
2022/07/01 12:14:26;;;;;;;1.83;0.45;;;20.10;85.60;;;;;;5070672;28;20052;-59
2022/07/01 12:17:00;;;;;;;3.22;1.08;;;20.20;86.90;;;;;;5071450;28;20123;-60
2022/07/01 12:19:47;;;;;;;1.70;0.60;;;20.30;87.00;;;;;;5070917;28;20499;-59
2022/07/01 12:22:19;;;;;;;5.65;0.90;;;20.30;81.30;;;;;;5069915;28;20106;-59
2022/07/01 12:24:46;;;;;;;6.82;2.17;;;20.30;83.80;;;;;;5070647;28;20094;-59
2022/07/01 12:27:13;;;;;;;3.42;0.90;;;20.30;85.60;;;;;;5070990;28;20114;-59
2022/07/01 12:29:43;;;;;;;3.03;1.25;;;20.20;86.50;;;;;;5070666;28;20121;-59
2022/07/01 12:32:12;;;;;;;3.92;0.98;;;20.00;84.90;;;;;;5067273;28;20430;-59
2022/07/01 12:34:40;;;;;;;3.55;1.95;;;19.80;86.80;;;;;;5070727;28;20083;-59
2022/07/01 12:37:12;;;;;;;3.42;1.15;;;19.70;87.40;;;;;;5070196;28;20562;-59
2022/07/01 12:39:53;;;;;;;5.63;1.15;;;19.70;88.20;;;;;;5062955;28;20121;-59
2022/07/01 12:42:38;;;;;;;4.57;0.85;;;19.70;87.00;;;;;;5070403;28;20128;-59
2022/07/01 12:45:06;;;;;;;1.73;0.60;;;19.60;88.20;;;;;;5070204;28;20056;-59
2022/07/01 12:47:34;;;;;;;7.13;1.20;;;19.60;88.80;;;;;;5070551;28;20048;-59
2022/07/01 12:50:28;;;;;;;10.55;1.25;;;19.70;88.20;;;;;;5070038;28;20157;-60
2022/07/01 12:53:04;;;;;;;3.83;1.35;;;19.80;87.00;;;;;;5066165;28;20076;-59
2022/07/01 12:55:33;;;;;;;3.30;0.93;;;19.90;85.50;;;;;;5070502;28;20071;-60
2022/07/01 12:58:02;;;;;;;4.88;1.63;;;20.10;87.90;;;;;;5066377;28;20092;-59
2022/07/01 13:00:29;;;;;;;2.42;0.90;;;20.30;86.50;;;;;;5070636;28;20481;-59
2022/07/01 13:02:58;;;;;;;2.25;0.82;;;20.60;87.80;;;;;;5068891;28;20076;-59